sensor_id;sensor_type;location;lat;lon;timestamp;pressure;altitude;pressure_sealevel;temperature;humidity
13604;BME280;24578;48.264;11.436;2023-09-19T00:05:08;95835.88;;;15.24;100.00
13604;BME280;24578;48.264;11.436;2023-09-19T00:11:30;95825.81;;;15.29;100.00
13604;BME280;24578;48.264;11.436;2023-09-19T00:17:51;95824.31;;;15.27;100.00
13604;BME280;24578;48.264;11.436;2023-09-19T00:24:15;95820.88;;;15.26;100.00
13604;BME280;24578;48.264;11.436;2023-09-19T00:30:38;95828.72;;;15.26;100.00
13604;BME280;24578;48.264;11.436;2023-09-19T00:36:59;95849.06;;;15.22;100.00
13604;BME280;24578;48.264;11.436;2023-09-19T00:43:21;95848.75;;;15.26;100.00
13604;BME280;24578;48.264;11.436;2023-09-19T00:49:45;95857.53;;;15.25;100.00
13604;BME280;24578;48.264;11.436;2023-09-19T00:56:11;95853.38;;;15.32;100.00
13604;BME280;24578;48.264;11.436;2023-09-19T01:02:34;95867.00;;;15.44;100.00
13604;BME280;24578;48.264;11.436;2023-09-19T01:08:55;95866.25;;;15.51;100.00
13604;BME280;24578;48.264;11.436;2023-09-19T01:15:40;95875.72;;;15.52;100.00
13604;BME280;24578;48.264;11.436;2023-09-19T01:22:26;95886.22;;;15.61;100.00
13604;BME280;24578;48.264;11.436;2023-09-19T01:29:23;95884.56;;;15.60;100.00
13604;BME280;24578;48.264;11.436;2023-09-19T01:35:52;95888.06;;;15.68;100.00
13604;BME280;24578;48.264;11.436;2023-09-19T01:42:43;95893.03;;;15.80;100.00
13604;BME280;24578;48.264;11.436;2023-09-19T01:49:27;95892.41;;;15.60;100.00
13604;BME280;24578;48.264;11.436;2023-09-19T01:55:54;95903.44;;;15.53;100.00
13604;BME280;24578;48.264;11.436;2023-09-19T02:02:17;95893.28;;;15.50;100.00
13604;BME280;24578;48.264;11.436;2023-09-19T02:08:39;95895.47;;;15.55;100.00
13604;BME280;24578;48.264;11.436;2023-09-19T02:15:00;95907.16;;;15.51;100.00
13604;BME280;24578;48.264;11.436;2023-09-19T02:21:21;95903.22;;;15.47;100.00
13604;BME280;24578;48.264;11.436;2023-09-19T02:27:42;95891.97;;;15.46;100.00
13604;BME280;24578;48.264;11.436;2023-09-19T02:34:04;95908.03;;;15.42;100.00
13604;BME280;24578;48.264;11.436;2023-09-19T02:40:27;95907.19;;;15.33;100.00
13604;BME280;24578;48.264;11.436;2023-09-19T02:46:49;95911.31;;;15.26;100.00
13604;BME280;24578;48.264;11.436;2023-09-19T02:53:11;95906.34;;;15.14;100.00
13604;BME280;24578;48.264;11.436;2023-09-19T02:59:34;95909.41;;;15.10;100.00
13604;BME280;24578;48.264;11.436;2023-09-19T03:05:58;95909.81;;;15.05;100.00
13604;BME280;24578;48.264;11.436;2023-09-19T03:12:19;95916.94;;;15.03;100.00
13604;BME280;24578;48.264;11.436;2023-09-19T03:18:41;95919.19;;;14.98;100.00
13604;BME280;24578;48.264;11.436;2023-09-19T03:25:02;95938.25;;;14.98;100.00
13604;BME280;24578;48.264;11.436;2023-09-19T03:31:25;95931.84;;;14.92;100.00
13604;BME280;24578;48.264;11.436;2023-09-19T03:37:46;95930.78;;;14.85;100.00
13604;BME280;24578;48.264;11.436;2023-09-19T03:44:07;95934.88;;;14.88;100.00
13604;BME280;24578;48.264;11.436;2023-09-19T03:50:28;95937.47;;;14.88;100.00
13604;BME280;24578;48.264;11.436;2023-09-19T03:56:49;95940.84;;;14.98;100.00
13604;BME280;24578;48.264;11.436;2023-09-19T04:03:11;95939.44;;;15.04;100.00
13604;BME280;24578;48.264;11.436;2023-09-19T04:09:41;95939.03;;;15.09;100.00
13604;BME280;24578;48.264;11.436;2023-09-19T04:16:03;95949.06;;;15.03;100.00
13604;BME280;24578;48.264;11.436;2023-09-19T04:22:31;95955.09;;;15.04;100.00
13604;BME280;24578;48.264;11.436;2023-09-19T04:28:52;95960.69;;;15.09;100.00
13604;BME280;24578;48.264;11.436;2023-09-19T04:35:13;95968.75;;;15.16;100.00
13604;BME280;24578;48.264;11.436;2023-09-19T04:41:36;95969.25;;;15.19;100.00
13604;BME280;24578;48.264;11.436;2023-09-19T04:47:59;95974.47;;;15.19;100.00
13604;BME280;24578;48.264;11.436;2023-09-19T04:54:21;95985.69;;;15.30;100.00
13604;BME280;24578;48.264;11.436;2023-09-19T05:00:43;95996.88;;;15.40;100.00
13604;BME280;24578;48.264;11.436;2023-09-19T05:07:04;96001.75;;;15.53;100.00
13604;BME280;24578;48.264;11.436;2023-09-19T05:13:25;96010.38;;;15.53;100.00
13604;BME280;24578;48.264;11.436;2023-09-19T05:19:48;96022.16;;;15.58;100.00
13604;BME280;24578;48.264;11.436;2023-09-19T05:26:09;96022.91;;;15.68;100.00
13604;BME280;24578;48.264;11.436;2023-09-19T05:32:31;96023.75;;;15.68;100.00
13604;BME280;24578;48.264;11.436;2023-09-19T05:38:52;96031.97;;;15.92;100.00
13604;BME280;24578;48.264;11.436;2023-09-19T05:45:14;96025.13;;;15.91;100.00
13604;BME280;24578;48.264;11.436;2023-09-19T05:51:39;96039.56;;;16.03;100.00
13604;BME280;24578;48.264;11.436;2023-09-19T05:58:01;96042.28;;;16.11;100.00
13604;BME280;24578;48.264;11.436;2023-09-19T06:04:24;96058.00;;;16.20;100.00
13604;BME280;24578;48.264;11.436;2023-09-19T06:10:46;96059.84;;;16.27;100.00
13604;BME280;24578;48.264;11.436;2023-09-19T06:17:07;96053.28;;;16.41;100.00
13604;BME280;24578;48.264;11.436;2023-09-19T06:23:30;96051.75;;;16.57;100.00
13604;BME280;24578;48.264;11.436;2023-09-19T06:29:51;96058.00;;;16.64;100.00
13604;BME280;24578;48.264;11.436;2023-09-19T06:36:12;96061.09;;;16.86;100.00
13604;BME280;24578;48.264;11.436;2023-09-19T06:42:34;96067.63;;;17.51;100.00
13604;BME280;24578;48.264;11.436;2023-09-19T06:48:58;96075.72;;;17.83;100.00
13604;BME280;24578;48.264;11.436;2023-09-19T06:55:20;96076.03;;;19.60;100.00
13604;BME280;24578;48.264;11.436;2023-09-19T07:01:41;96071.56;;;21.75;88.65
13604;BME280;24578;48.264;11.436;2023-09-19T07:08:09;96076.78;;;20.93;88.55
13604;BME280;24578;48.264;11.436;2023-09-19T07:14:33;96093.75;;;19.66;100.00
13604;BME280;24578;48.264;11.436;2023-09-19T07:20:57;96096.06;;;19.05;100.00
13604;BME280;24578;48.264;11.436;2023-09-19T07:27:25;96084.66;;;21.08;91.39
13604;BME280;24578;48.264;11.436;2023-09-19T07:33:47;96068.88;;;26.28;54.29
13604;BME280;24578;48.264;11.436;2023-09-19T07:40:08;96077.00;;;28.33;46.46
13604;BME280;24578;48.264;11.436;2023-09-19T07:46:30;96092.97;;;24.21;56.41
13604;BME280;24578;48.264;11.436;2023-09-19T07:52:54;96090.00;;;23.89;60.74
13604;BME280;24578;48.264;11.436;2023-09-19T07:59:17;96083.72;;;23.41;64.42
13604;BME280;24578;48.264;11.436;2023-09-19T08:05:38;96096.72;;;22.36;71.64
13604;BME280;24578;48.264;11.436;2023-09-19T08:12:02;96094.19;;;22.71;70.22
13604;BME280;24578;48.264;11.436;2023-09-19T08:18:23;96089.06;;;23.20;69.40
13604;BME280;24578;48.264;11.436;2023-09-19T08:24:45;96084.47;;;27.93;48.96
13604;BME280;24578;48.264;11.436;2023-09-19T08:31:08;96083.63;;;30.31;42.30
13604;BME280;24578;48.264;11.436;2023-09-19T08:37:29;96091.09;;;30.97;39.65
13604;BME280;24578;48.264;11.436;2023-09-19T08:43:50;96095.28;;;31.27;39.44
13604;BME280;24578;48.264;11.436;2023-09-19T08:50:30;96093.63;;;31.87;37.59
13604;BME280;24578;48.264;11.436;2023-09-19T08:56:53;96100.50;;;29.38;42.48
13604;BME280;24578;48.264;11.436;2023-09-19T09:03:16;96098.06;;;29.12;43.20
13604;BME280;24578;48.264;11.436;2023-09-19T09:09:40;96109.97;;;26.51;46.78
13604;BME280;24578;48.264;11.436;2023-09-19T09:16:04;96099.50;;;30.08;41.38
13604;BME280;24578;48.264;11.436;2023-09-19T09:22:26;96092.19;;;31.35;37.14
13604;BME280;24578;48.264;11.436;2023-09-19T09:28:47;96091.78;;;32.43;35.56
13604;BME280;24578;48.264;11.436;2023-09-19T09:35:09;96094.34;;;32.92;35.20
13604;BME280;24578;48.264;11.436;2023-09-19T09:41:37;96091.50;;;30.55;38.05
13604;BME280;24578;48.264;11.436;2023-09-19T09:48:01;96088.94;;;31.55;35.49
13604;BME280;24578;48.264;11.436;2023-09-19T09:54:29;96089.13;;;30.41;36.75
13604;BME280;24578;48.264;11.436;2023-09-19T10:00:59;96109.28;;;28.91;39.34
13604;BME280;24578;48.264;11.436;2023-09-19T10:07:30;96110.09;;;28.37;42.35
13604;BME280;24578;48.264;11.436;2023-09-19T10:14:00;96108.78;;;29.65;40.41
13604;BME280;24578;48.264;11.436;2023-09-19T10:20:23;96101.44;;;31.50;36.52
13604;BME280;24578;48.264;11.436;2023-09-19T10:26:55;96104.06;;;30.88;36.45
13604;BME280;24578;48.264;11.436;2023-09-19T10:33:19;96119.47;;;29.41;36.96
13604;BME280;24578;48.264;11.436;2023-09-19T10:39:42;96114.03;;;29.89;38.00
13604;BME280;24578;48.264;11.436;2023-09-19T10:46:09;96122.56;;;28.24;40.81
13604;BME280;24578;48.264;11.436;2023-09-19T10:52:33;96128.31;;;27.54;43.23
13604;BME280;24578;48.264;11.436;2023-09-19T10:59:09;96128.69;;;26.88;42.70
13604;BME280;24578;48.264;11.436;2023-09-19T11:05:31;96125.41;;;25.83;46.10
13604;BME280;24578;48.264;11.436;2023-09-19T11:11:52;96135.09;;;24.63;49.70
13604;BME280;24578;48.264;11.436;2023-09-19T11:31:55;96122.50;;;25.91;47.93
13604;BME280;24578;48.264;11.436;2023-09-19T11:38:17;96119.41;;;26.01;47.87
13604;BME280;24578;48.264;11.436;2023-09-19T11:44:38;96121.06;;;25.23;49.88
13604;BME280;24578;48.264;11.436;2023-09-19T11:51:00;96134.91;;;24.51;50.92
13604;BME280;24578;48.264;11.436;2023-09-19T11:57:28;96129.56;;;24.24;52.10
13604;BME280;24578;48.264;11.436;2023-09-19T12:03:55;96125.81;;;25.87;47.96
13604;BME280;24578;48.264;11.436;2023-09-19T12:10:20;96119.34;;;26.79;45.94
13604;BME280;24578;48.264;11.436;2023-09-19T12:16:51;96108.53;;;27.99;43.58
13604;BME280;24578;48.264;11.436;2023-09-19T12:23:16;96118.72;;;26.19;45.55
13604;BME280;24578;48.264;11.436;2023-09-19T12:29:48;96124.97;;;24.93;47.98
13604;BME280;24578;48.264;11.436;2023-09-19T12:36:23;96127.66;;;23.21;52.88
13604;BME280;24578;48.264;11.436;2023-09-19T12:42:52;96129.31;;;22.50;59.42
13604;BME280;24578;48.264;11.436;2023-09-19T12:49:18;96128.88;;;22.68;63.55
13604;BME280;24578;48.264;11.436;2023-09-19T12:55:39;96111.47;;;25.49;52.68
13604;BME280;24578;48.264;11.436;2023-09-19T13:02:04;96095.84;;;27.08;47.54
13604;BME280;24578;48.264;11.436;2023-09-19T13:08:33;96093.75;;;27.54;45.89
13604;BME280;24578;48.264;11.436;2023-09-19T13:15:11;96081.94;;;27.68;43.80
13604;BME280;24578;48.264;11.436;2023-09-19T13:21:37;96084.28;;;28.80;41.68
13604;BME280;24578;48.264;11.436;2023-09-19T13:28:04;96068.53;;;29.02;41.46
13604;BME280;24578;48.264;11.436;2023-09-19T13:34:26;96065.31;;;27.17;43.55
13604;BME280;24578;48.264;11.436;2023-09-19T13:40:48;96057.97;;;28.17;42.99
13604;BME280;24578;48.264;11.436;2023-09-19T13:47:09;96069.13;;;26.52;45.63
13604;BME280;24578;48.264;11.436;2023-09-19T13:53:31;96060.72;;;25.38;48.24
13604;BME280;24578;48.264;11.436;2023-09-19T13:59:52;96060.78;;;25.12;49.33
13604;BME280;24578;48.264;11.436;2023-09-19T14:06:17;96065.53;;;24.42;48.93
13604;BME280;24578;48.264;11.436;2023-09-19T14:12:39;96050.44;;;25.69;47.52
13604;BME280;24578;48.264;11.436;2023-09-19T14:19:04;96047.50;;;26.55;45.81
13604;BME280;24578;48.264;11.436;2023-09-19T14:25:26;96047.06;;;26.77;44.83
13604;BME280;24578;48.264;11.436;2023-09-19T14:31:47;96042.53;;;26.01;45.61
13604;BME280;24578;48.264;11.436;2023-09-19T14:38:08;96036.47;;;25.48;46.17
13604;BME280;24578;48.264;11.436;2023-09-19T14:44:30;96032.94;;;24.96;49.00
13604;BME280;24578;48.264;11.436;2023-09-19T14:50:52;96037.63;;;24.26;49.31
13604;BME280;24578;48.264;11.436;2023-09-19T14:57:14;96039.16;;;23.74;51.99
13604;BME280;24578;48.264;11.436;2023-09-19T15:03:36;96026.81;;;23.39;52.84
13604;BME280;24578;48.264;11.436;2023-09-19T15:09:57;96030.75;;;23.15;53.73
13604;BME280;24578;48.264;11.436;2023-09-19T15:16:18;96029.59;;;22.89;54.22
13604;BME280;24578;48.264;11.436;2023-09-19T15:22:40;96026.56;;;22.92;52.88
13604;BME280;24578;48.264;11.436;2023-09-19T15:29:01;96022.78;;;22.44;54.87
13604;BME280;24578;48.264;11.436;2023-09-19T15:35:24;96015.50;;;22.25;55.18
13604;BME280;24578;48.264;11.436;2023-09-19T15:41:45;96023.81;;;22.00;57.71
13604;BME280;24578;48.264;11.436;2023-09-19T15:48:10;96027.00;;;21.95;57.22
13604;BME280;24578;48.264;11.436;2023-09-19T15:54:34;96028.19;;;21.71;59.33
13604;BME280;24578;48.264;11.436;2023-09-19T16:00:56;96027.09;;;21.50;59.19
13604;BME280;24578;48.264;11.436;2023-09-19T16:07:17;96022.59;;;21.14;61.35
13604;BME280;24578;48.264;11.436;2023-09-19T16:13:41;96020.72;;;20.93;62.11
13604;BME280;24578;48.264;11.436;2023-09-19T16:20:02;96029.69;;;20.83;62.70
13604;BME280;24578;48.264;11.436;2023-09-19T16:26:25;96029.63;;;20.68;62.09
13604;BME280;24578;48.264;11.436;2023-09-19T16:32:46;96035.59;;;20.47;61.46
13604;BME280;24578;48.264;11.436;2023-09-19T16:39:08;96040.41;;;20.20;62.47
13604;BME280;24578;48.264;11.436;2023-09-19T16:45:29;96039.47;;;19.90;64.85
13604;BME280;24578;48.264;11.436;2023-09-19T16:51:50;96038.63;;;19.66;67.67
13604;BME280;24578;48.264;11.436;2023-09-19T16:58:16;96046.25;;;19.44;70.84
13604;BME280;24578;48.264;11.436;2023-09-19T17:04:38;96038.50;;;19.20;73.18
13604;BME280;24578;48.264;11.436;2023-09-19T17:11:01;96036.59;;;18.97;75.78
13604;BME280;24578;48.264;11.436;2023-09-19T17:17:22;96044.84;;;18.69;80.04
13604;BME280;24578;48.264;11.436;2023-09-19T17:23:44;96040.75;;;18.41;83.68
13604;BME280;24578;48.264;11.436;2023-09-19T17:30:08;96043.06;;;18.20;87.71
13604;BME280;24578;48.264;11.436;2023-09-19T17:36:32;96047.75;;;17.91;92.70
13604;BME280;24578;48.264;11.436;2023-09-19T17:42:53;96053.44;;;17.70;96.82
13604;BME280;24578;48.264;11.436;2023-09-19T17:49:14;96060.75;;;17.50;100.00
13604;BME280;24578;48.264;11.436;2023-09-19T17:55:37;96052.97;;;17.24;100.00
13604;BME280;24578;48.264;11.436;2023-09-19T18:01:59;96063.16;;;17.00;100.00
13604;BME280;24578;48.264;11.436;2023-09-19T18:08:20;96076.09;;;16.84;100.00
13604;BME280;24578;48.264;11.436;2023-09-19T18:14:43;96087.25;;;16.68;100.00
13604;BME280;24578;48.264;11.436;2023-09-19T18:21:04;96090.56;;;16.52;100.00
13604;BME280;24578;48.264;11.436;2023-09-19T18:27:26;96100.88;;;16.35;100.00
13604;BME280;24578;48.264;11.436;2023-09-19T18:33:51;96102.00;;;16.14;100.00
13604;BME280;24578;48.264;11.436;2023-09-19T18:40:14;96112.97;;;16.00;100.00
13604;BME280;24578;48.264;11.436;2023-09-19T18:46:35;96106.56;;;15.84;100.00
13604;BME280;24578;48.264;11.436;2023-09-19T18:52:56;96113.94;;;15.71;100.00
13604;BME280;24578;48.264;11.436;2023-09-19T18:59:17;96126.66;;;15.56;100.00
13604;BME280;24578;48.264;11.436;2023-09-19T19:05:43;96118.47;;;15.41;100.00
13604;BME280;24578;48.264;11.436;2023-09-19T19:12:05;96128.81;;;15.33;100.00
13604;BME280;24578;48.264;11.436;2023-09-19T19:18:27;96123.47;;;15.25;100.00
13604;BME280;24578;48.264;11.436;2023-09-19T19:24:50;96124.63;;;15.12;100.00
13604;BME280;24578;48.264;11.436;2023-09-19T19:31:11;96123.84;;;15.02;100.00
13604;BME280;24578;48.264;11.436;2023-09-19T19:37:32;96123.28;;;14.88;100.00
13604;BME280;24578;48.264;11.436;2023-09-19T19:43:54;96130.47;;;14.76;100.00
13604;BME280;24578;48.264;11.436;2023-09-19T19:50:16;96126.19;;;14.66;100.00
13604;BME280;24578;48.264;11.436;2023-09-19T19:56:38;96131.00;;;14.60;100.00
13604;BME280;24578;48.264;11.436;2023-09-19T20:03:00;96130.31;;;14.49;100.00
13604;BME280;24578;48.264;11.436;2023-09-19T20:09:21;96128.69;;;14.38;100.00
13604;BME280;24578;48.264;11.436;2023-09-19T20:15:42;96132.38;;;14.25;100.00
13604;BME280;24578;48.264;11.436;2023-09-19T20:22:04;96143.88;;;14.13;100.00
13604;BME280;24578;48.264;11.436;2023-09-19T20:28:29;96155.50;;;13.99;100.00
13604;BME280;24578;48.264;11.436;2023-09-19T20:34:50;96159.84;;;13.89;100.00
13604;BME280;24578;48.264;11.436;2023-09-19T20:41:12;96165.88;;;13.79;100.00
13604;BME280;24578;48.264;11.436;2023-09-19T20:47:33;96176.94;;;13.72;100.00
13604;BME280;24578;48.264;11.436;2023-09-19T20:53:54;96173.19;;;13.64;100.00
13604;BME280;24578;48.264;11.436;2023-09-19T21:00:17;96173.72;;;13.58;100.00
13604;BME280;24578;48.264;11.436;2023-09-19T21:06:41;96169.03;;;13.52;100.00
13604;BME280;24578;48.264;11.436;2023-09-19T21:13:02;96175.75;;;13.45;100.00
13604;BME280;24578;48.264;11.436;2023-09-19T21:19:29;96167.88;;;13.35;100.00
13604;BME280;24578;48.264;11.436;2023-09-19T21:25:54;96172.63;;;13.30;100.00
13604;BME280;24578;48.264;11.436;2023-09-19T21:32:16;96184.09;;;13.27;100.00
13604;BME280;24578;48.264;11.436;2023-09-19T21:38:39;96178.47;;;13.22;100.00
13604;BME280;24578;48.264;11.436;2023-09-19T21:45:00;96188.78;;;13.12;100.00
13604;BME280;24578;48.264;11.436;2023-09-19T21:51:21;96196.59;;;13.12;100.00
13604;BME280;24578;48.264;11.436;2023-09-19T21:57:43;96180.69;;;13.05;100.00
13604;BME280;24578;48.264;11.436;2023-09-19T22:04:04;96190.63;;;13.00;100.00
13604;BME280;24578;48.264;11.436;2023-09-19T22:10:26;96181.47;;;12.96;100.00
13604;BME280;24578;48.264;11.436;2023-09-19T22:16:47;96167.63;;;12.95;100.00
13604;BME280;24578;48.264;11.436;2023-09-19T22:23:09;96175.81;;;12.91;100.00
13604;BME280;24578;48.264;11.436;2023-09-19T22:29:33;96180.44;;;12.87;100.00
13604;BME280;24578;48.264;11.436;2023-09-19T22:35:54;96182.09;;;12.88;100.00
13604;BME280;24578;48.264;11.436;2023-09-19T22:42:17;96178.09;;;12.84;100.00
13604;BME280;24578;48.264;11.436;2023-09-19T22:48:44;96180.13;;;12.81;100.00
13604;BME280;24578;48.264;11.436;2023-09-19T22:55:08;96185.31;;;12.81;100.00
13604;BME280;24578;48.264;11.436;2023-09-19T23:01:30;96180.38;;;12.77;100.00
13604;BME280;24578;48.264;11.436;2023-09-19T23:07:57;96182.75;;;12.69;100.00
13604;BME280;24578;48.264;11.436;2023-09-19T23:14:20;96181.88;;;12.59;100.00
13604;BME280;24578;48.264;11.436;2023-09-19T23:20:41;96176.75;;;12.47;100.00
13604;BME280;24578;48.264;11.436;2023-09-19T23:27:07;96177.94;;;12.43;100.00
13604;BME280;24578;48.264;11.436;2023-09-19T23:33:37;96187.03;;;12.38;100.00
13604;BME280;24578;48.264;11.436;2023-09-19T23:39:58;96184.25;;;12.29;100.00
13604;BME280;24578;48.264;11.436;2023-09-19T23:46:19;96179.66;;;12.22;100.00
13604;BME280;24578;48.264;11.436;2023-09-19T23:52:41;96178.34;;;12.16;100.00
13604;BME280;24578;48.264;11.436;2023-09-19T23:59:03;96175.31;;;12.11;100.00
